Time;durP1;ratioP1;P1;durP2;ratioP2;P2;SDS_P1;SDS_P2;PMS_P1;PMS_P2;Temp;Humidity;BMP_temperature;BMP_pressure;BME280_temperature;BME280_humidity;BME280_pressure;Samples;Min_cycle;Max_cycle;Signal;HPM_P1;HPM_P2
2022/06/21 00:01:34;;;;;;;1.50;1.10;;;24.20;49.20;;;;;;5062565;28;21130;-48
2022/06/21 00:04:16;;;;;;;1.53;1.17;;;24.20;49.20;;;;;;5079459;28;20539;-48
2022/06/21 00:06:56;;;;;;;1.40;1.30;;;24.20;49.20;;;;;;5050682;28;21065;-49
2022/06/21 00:09:37;;;;;;;1.80;1.47;;;24.20;49.20;;;;;;5062713;27;21071;-50
2022/06/21 00:12:17;;;;;;;1.30;1.20;;;24.20;49.40;;;;;;5087330;27;20548;-51
2022/06/21 00:14:58;;;;;;;1.30;1.20;;;24.20;49.30;;;;;;5071084;28;20594;-49
2022/06/21 00:17:40;;;;;;;1.80;1.40;;;24.20;49.30;;;;;;5080784;27;20556;-49
2022/06/21 00:20:24;;;;;;;1.80;1.30;;;24.20;49.30;;;;;;5106433;27;20651;-47
2022/06/21 00:23:04;;;;;;;1.50;1.40;;;24.20;49.30;;;;;;5094081;27;20936;-46
2022/06/21 00:25:46;;;;;;;1.27;1.10;;;24.20;49.40;;;;;;5125747;27;20543;-49
2022/06/21 00:28:27;;;;;;;1.67;1.23;;;24.20;49.40;;;;;;5124864;27;20574;-47
2022/06/21 00:31:16;;;;;;;1.40;1.30;;;24.20;49.40;;;;;;5112396;27;20539;-48
2022/06/21 00:33:59;;;;;;;1.20;1.10;;;24.20;49.40;;;;;;5083538;27;20541;-48
2022/06/21 00:36:39;;;;;;;2.07;1.23;;;24.20;49.40;;;;;;5067916;28;20543;-48
2022/06/21 00:39:20;;;;;;;1.50;1.30;;;24.20;49.40;;;;;;5085386;28;20530;-48
2022/06/21 00:42:12;;;;;;;1.20;1.10;;;24.10;49.40;;;;;;5120086;27;1208176;-47
2022/06/21 00:45:02;;;;;;;1.60;1.50;;;24.10;49.40;;;;;;5060726;28;21081;-46
2022/06/21 00:47:46;;;;;;;1.43;1.33;;;24.10;49.40;;;;;;5068454;27;20605;-48
2022/06/21 00:50:31;;;;;;;1.20;1.10;;;24.10;49.40;;;;;;5108934;27;20584;-48
2022/06/21 00:53:17;;;;;;;1.30;1.20;;;24.10;49.40;;;;;;5127946;27;20579;-51
2022/06/21 00:56:03;;;;;;;1.50;1.40;;;24.10;49.40;;;;;;5136456;27;20603;-50
2022/06/21 00:58:44;;;;;;;1.70;1.37;;;24.10;49.40;;;;;;5087173;28;20937;-48
2022/06/21 01:01:28;;;;;;;1.60;1.13;;;24.10;49.40;;;;;;5075217;27;21109;-48
2022/06/21 01:04:15;;;;;;;2.10;1.40;;;24.10;49.40;;;;;;5080055;28;20958;-49
2022/06/21 01:07:00;;;;;;;1.57;1.17;;;24.10;49.50;;;;;;5062517;28;20964;-48
2022/06/21 01:09:46;;;;;;;2.27;1.93;;;24.10;49.50;;;;;;5085778;28;20612;-48
2022/06/21 01:12:30;;;;;;;1.30;1.20;;;24.10;49.50;;;;;;5023284;27;20542;-47
2022/06/21 01:15:17;;;;;;;1.57;1.47;;;24.10;49.60;;;;;;5071431;28;20603;-47
2022/06/21 01:18:01;;;;;;;1.20;1.10;;;24.10;49.60;;;;;;5069086;27;20633;-48
2022/06/21 01:20:45;;;;;;;1.40;1.30;;;24.10;49.60;;;;;;5103286;27;20554;-48
2022/06/21 01:23:50;;;;;;;1.47;1.37;;;24.10;49.60;;;;;;5086200;28;20597;-47
2022/06/21 01:26:44;;;;;;;1.40;1.30;;;24.10;49.70;;;;;;5063088;28;20883;-47
2022/06/21 01:29:33;;;;;;;1.40;1.20;;;24.00;49.70;;;;;;5079831;28;20588;-48
2022/06/21 01:32:13;;;;;;;1.27;1.17;;;24.00;49.60;;;;;;5045567;28;20550;-49
2022/06/21 01:34:54;;;;;;;1.23;1.00;;;24.00;49.50;;;;;;5095684;27;20537;-51
2022/06/21 01:37:35;;;;;;;1.30;1.20;;;24.00;49.70;;;;;;5052912;27;21126;-48
2022/06/21 01:40:21;;;;;;;1.47;1.20;;;24.00;49.70;;;;;;5107441;27;20584;-47
2022/06/21 01:43:06;;;;;;;1.43;1.33;;;24.00;49.70;;;;;;5106055;27;20586;-52
2022/06/21 01:45:52;;;;;;;1.43;1.33;;;24.00;49.60;;;;;;5086421;27;20550;-48
2022/06/21 01:48:35;;;;;;;1.40;1.30;;;24.00;49.70;;;;;;5109424;27;20575;-49
2022/06/21 01:51:24;;;;;;;1.70;1.60;;;24.00;49.70;;;;;;5065951;28;21097;-48
2022/06/21 01:54:08;;;;;;;1.67;1.10;;;24.00;49.70;;;;;;5081545;28;20589;-48
2022/06/21 01:56:51;;;;;;;1.60;1.50;;;24.00;49.70;;;;;;5042838;27;20610;-48
2022/06/21 01:59:34;;;;;;;1.77;1.40;;;23.90;49.70;;;;;;5108884;27;20534;-49
2022/06/21 02:02:18;;;;;;;1.13;1.13;;;23.90;50.90;;;;;;5090137;27;1219708;-48
2022/06/21 02:05:04;;;;;;;1.57;1.47;;;23.90;49.80;;;;;;5114366;27;20540;-48
2022/06/21 02:07:49;;;;;;;1.20;1.10;;;23.90;49.80;;;;;;5108849;27;20597;-51
2022/06/21 02:10:34;;;;;;;1.57;1.47;;;23.90;49.70;;;;;;5127955;27;21086;-47
2022/06/21 02:13:34;;;;;;;1.40;1.30;;;23.90;49.70;;;;;;5125560;27;20553;-46
2022/06/21 02:16:18;;;;;;;2.00;1.40;;;23.90;49.80;;;;;;5076877;27;20548;-48
2022/06/21 02:18:59;;;;;;;1.70;1.60;;;23.90;49.90;;;;;;5115924;27;20518;-48
2022/06/21 02:21:42;;;;;;;1.90;1.10;;;23.90;49.90;;;;;;5064976;27;21061;-49
2022/06/21 02:24:28;;;;;;;1.60;1.50;;;23.90;49.90;;;;;;5077499;28;20538;-49
2022/06/21 02:27:11;;;;;;;1.63;1.33;;;23.90;50.00;;;;;;5068160;27;20538;-48
2022/06/21 02:29:54;;;;;;;1.27;1.17;;;23.90;49.90;;;;;;5122955;27;20599;-48
2022/06/21 02:32:37;;;;;;;1.83;1.30;;;23.90;49.90;;;;;;5037272;27;20598;-48
2022/06/21 02:35:25;;;;;;;2.13;1.37;;;23.90;50.10;;;;;;5125770;27;20598;-48
2022/06/21 02:38:11;;;;;;;1.27;1.13;;;23.90;50.00;;;;;;5132618;27;20565;-48
2022/06/21 02:40:56;;;;;;;1.50;1.40;;;23.80;50.00;;;;;;5120722;27;20521;-48
2022/06/21 02:43:41;;;;;;;1.53;1.43;;;23.80;50.00;;;;;;5097610;27;20597;-48
2022/06/21 02:46:27;;;;;;;1.30;1.20;;;23.90;50.00;;;;;;5080237;27;20640;-48
2022/06/21 02:49:16;;;;;;;1.70;1.60;;;23.80;50.10;;;;;;5085925;27;20941;-48
2022/06/21 02:51:59;;;;;;;1.33;1.23;;;23.80;50.00;;;;;;5063386;28;20593;-48
2022/06/21 02:54:46;;;;;;;1.50;1.40;;;23.80;50.00;;;;;;5090953;27;20536;-48
2022/06/21 02:57:33;;;;;;;1.87;1.10;;;23.80;50.00;;;;;;5075995;27;20549;-48
2022/06/21 03:00:16;;;;;;;2.07;1.60;;;23.80;50.10;;;;;;5084457;28;20589;-48
2022/06/21 03:03:00;;;;;;;1.37;1.20;;;23.80;50.10;;;;;;5051794;27;20605;-49
2022/06/21 03:05:40;;;;;;;1.50;1.40;;;23.80;50.10;;;;;;5088732;27;20605;-48
2022/06/21 03:08:21;;;;;;;1.23;1.13;;;23.80;50.10;;;;;;5085967;27;20591;-48
2022/06/21 03:11:02;;;;;;;2.17;1.60;;;23.80;50.00;;;;;;5119718;27;20551;-51
2022/06/21 03:13:42;;;;;;;1.60;1.50;;;23.80;50.10;;;;;;5124652;27;1212667;-48
2022/06/21 03:16:24;;;;;;;1.00;0.90;;;23.80;50.10;;;;;;5112865;27;20582;-48
2022/06/21 03:19:13;;;;;;;1.60;1.23;;;23.70;50.10;;;;;;5077371;28;20578;-48
2022/06/21 03:21:54;;;;;;;1.07;1.00;;;23.70;50.00;;;;;;5101645;27;21059;-48
2022/06/21 03:24:35;;;;;;;1.70;1.30;;;23.70;50.00;;;;;;5097582;27;21134;-48
2022/06/21 03:27:23;;;;;;;1.80;1.70;;;23.70;50.10;;;;;;5045566;28;20608;-49
2022/06/21 03:30:04;;;;;;;1.77;1.27;;;23.70;50.20;;;;;;5081265;28;20593;-48
2022/06/21 03:32:47;;;;;;;1.47;1.37;;;23.70;50.20;;;;;;5070000;27;20545;-47
2022/06/21 03:35:30;;;;;;;1.23;1.13;;;23.70;50.20;;;;;;5067114;28;20602;-48
2022/06/21 03:38:12;;;;;;;1.30;1.20;;;23.60;50.10;;;;;;5152588;27;21122;-48
2022/06/21 03:44:04;;;;;;;1.57;1.47;;;23.60;50.20;;;;;;5121339;27;20530;-48
2022/06/21 03:46:50;;;;;;;3.07;1.60;;;23.60;50.20;;;;;;5058360;28;20590;-48
2022/06/21 03:49:37;;;;;;;1.07;0.87;;;23.60;50.20;;;;;;5087277;28;20577;-48
2022/06/21 03:55:32;;;;;;;1.30;1.20;;;23.60;50.20;;;;;;5095323;27;20660;-48
2022/06/21 03:58:22;;;;;;;1.43;1.10;;;23.60;50.20;;;;;;5068742;28;20525;-48
2022/06/21 04:01:07;;;;;;;1.43;1.10;;;23.60;50.30;;;;;;5077861;28;20524;-48
2022/06/21 04:03:53;;;;;;;1.60;1.50;;;23.60;50.30;;;;;;5084426;27;20945;-47
2022/06/21 04:06:41;;;;;;;1.03;1.03;;;23.60;50.30;;;;;;5105447;27;20593;-49
2022/06/21 04:09:28;;;;;;;1.60;1.23;;;23.60;50.30;;;;;;5069242;28;20529;-48
2022/06/21 04:12:17;;;;;;;1.67;1.47;;;23.50;50.20;;;;;;5065952;28;20601;-48
2022/06/21 04:15:06;;;;;;;1.63;1.53;;;23.50;50.30;;;;;;5075141;27;20540;-48
2022/06/21 04:17:54;;;;;;;1.37;1.27;;;23.50;50.30;;;;;;5108393;27;20599;-49
2022/06/21 04:20:40;;;;;;;3.03;1.80;;;23.50;50.30;;;;;;5085758;28;20548;-48
2022/06/21 04:23:28;;;;;;;2.07;1.30;;;23.50;50.40;;;;;;5127748;27;21100;-48
2022/06/21 04:26:15;;;;;;;1.67;1.57;;;23.50;50.30;;;;;;5082030;27;20533;-49
2022/06/21 04:29:03;;;;;;;1.80;1.47;;;23.50;50.30;;;;;;5104505;27;20534;-49
2022/06/21 04:31:49;;;;;;;1.80;1.70;;;23.50;50.40;;;;;;5098276;27;21297;-47
2022/06/21 04:34:36;;;;;;;2.03;1.30;;;23.50;50.40;;;;;;5098507;27;20658;-48
2022/06/21 04:37:23;;;;;;;3.33;1.50;;;23.50;51.60;;;;;;5060722;27;20603;-49
2022/06/21 04:40:10;;;;;;;1.30;1.20;;;23.50;50.40;;;;;;5127492;27;20538;-49
2022/06/21 04:42:55;;;;;;;1.50;1.40;;;23.50;50.50;;;;;;5068061;27;20590;-49
2022/06/21 04:45:42;;;;;;;1.47;1.23;;;23.50;50.50;;;;;;5109631;27;20609;-48
2022/06/21 04:48:31;;;;;;;1.55;1.45;;;23.40;50.40;;;;;;5134656;27;1218137;-47
2022/06/21 04:51:16;;;;;;;1.60;1.50;;;23.40;50.40;;;;;;5080319;28;21096;-47
2022/06/21 04:54:01;;;;;;;1.17;1.07;;;23.40;50.50;;;;;;5105230;27;20589;-47
2022/06/21 04:56:49;;;;;;;1.47;1.37;;;23.40;50.40;;;;;;5060093;28;21046;-48
2022/06/21 04:59:32;;;;;;;1.93;1.40;;;23.40;50.50;;;;;;5107600;27;20586;-48
2022/06/21 05:02:19;;;;;;;2.70;1.47;;;23.40;50.50;;;;;;5082237;27;20594;-48
2022/06/21 05:05:04;;;;;;;1.20;1.10;;;23.40;50.40;;;;;;5083497;28;20535;-48
2022/06/21 05:07:48;;;;;;;1.40;1.30;;;23.40;50.50;;;;;;5068879;27;20553;-48
2022/06/21 05:10:31;;;;;;;1.60;1.03;;;23.40;50.50;;;;;;5128201;27;20517;-48
2022/06/21 05:13:18;;;;;;;1.70;1.57;;;23.40;50.50;;;;;;5086727;28;21054;-49
2022/06/21 05:16:01;;;;;;;1.80;1.70;;;23.40;50.60;;;;;;5132097;27;21082;-48
2022/06/21 05:18:46;;;;;;;1.30;1.20;;;23.30;50.50;;;;;;5119290;27;20974;-49
2022/06/21 05:21:32;;;;;;;1.63;1.30;;;23.30;50.40;;;;;;5061784;28;20617;-48
2022/06/21 05:24:14;;;;;;;1.40;1.30;;;23.30;50.40;;;;;;5072140;27;20537;-49
2022/06/21 05:27:05;;;;;;;2.40;1.33;;;23.30;50.50;;;;;;5064837;28;20558;-49
2022/06/21 05:29:51;;;;;;;1.60;1.27;;;23.30;50.40;;;;;;5082019;28;20584;-50
2022/06/21 05:32:37;;;;;;;1.43;1.33;;;23.30;50.40;;;;;;5088369;27;20601;-48
2022/06/21 05:35:24;;;;;;;1.50;1.40;;;23.30;50.50;;;;;;5071284;27;21117;-49
2022/06/21 05:38:08;;;;;;;1.63;1.53;;;23.30;50.50;;;;;;5086797;28;20577;-48
2022/06/21 05:40:58;;;;;;;1.30;1.20;;;23.30;50.50;;;;;;5084495;27;20524;-48
2022/06/21 05:43:42;;;;;;;1.57;1.47;;;23.30;50.40;;;;;;5076145;27;20652;-48
2022/06/21 05:46:25;;;;;;;1.40;1.30;;;23.30;50.50;;;;;;5087772;27;20541;-48
2022/06/21 05:49:10;;;;;;;1.53;1.43;;;23.30;50.40;;;;;;5107447;27;20575;-48
2022/06/21 05:51:51;;;;;;;1.87;1.27;;;23.30;50.50;;;;;;5095896;27;20621;-48
2022/06/21 05:54:34;;;;;;;1.60;1.50;;;23.30;50.50;;;;;;5082410;28;20601;-49
2022/06/21 05:57:20;;;;;;;1.80;1.40;;;23.30;50.50;;;;;;5046188;28;21130;-48
2022/06/21 06:00:03;;;;;;;2.03;1.67;;;23.30;50.50;;;;;;5085766;27;20535;-48
2022/06/21 06:02:50;;;;;;;1.47;1.37;;;23.30;50.40;;;;;;5069626;27;21428;-49
2022/06/21 06:05:35;;;;;;;1.67;1.57;;;23.30;50.50;;;;;;5077924;27;20593;-48
2022/06/21 06:08:22;;;;;;;1.60;1.50;;;23.30;50.40;;;;;;5088250;28;20561;-49
2022/06/21 06:11:09;;;;;;;1.27;1.17;;;23.30;50.50;;;;;;5078761;27;21179;-49
2022/06/21 06:13:53;;;;;;;1.60;1.50;;;23.30;50.50;;;;;;5070263;28;20603;-48
2022/06/21 06:16:38;;;;;;;1.57;1.47;;;23.30;50.50;;;;;;5103339;27;20548;-48
2022/06/21 06:19:24;;;;;;;1.70;1.60;;;23.30;50.40;;;;;;5107398;27;21065;-48
2022/06/21 06:22:26;;;;;;;2.07;1.10;;;23.30;50.40;;;;;;5070426;28;20532;-49
2022/06/21 06:25:19;;;;;;;1.50;1.07;;;23.30;50.40;;;;;;5081887;27;20593;-48
2022/06/21 06:28:04;;;;;;;1.40;1.30;;;23.30;51.70;;;;;;5064617;27;20965;-48
2022/06/21 06:30:49;;;;;;;1.90;1.80;;;23.20;50.40;;;;;;5125764;27;20559;-49
2022/06/21 06:33:35;;;;;;;1.60;1.50;;;23.20;50.40;;;;;;5086985;28;20629;-48
2022/06/21 06:36:24;;;;;;;2.27;1.60;;;23.20;50.40;;;;;;5052986;27;20595;-49
2022/06/21 06:39:16;;;;;;;1.70;1.60;;;23.20;50.40;;;;;;5128414;27;20575;-49
2022/06/21 06:42:07;;;;;;;1.50;1.40;;;23.20;50.50;;;;;;5042553;28;20943;-49
2022/06/21 06:44:51;;;;;;;1.83;1.33;;;23.20;50.40;;;;;;5092883;27;20539;-48
2022/06/21 06:47:36;;;;;;;1.50;1.40;;;23.20;50.30;;;;;;5054560;28;21154;-48
2022/06/21 06:50:23;;;;;;;1.70;1.60;;;23.20;50.30;;;;;;5103474;27;21135;-49
2022/06/21 06:53:09;;;;;;;2.27;2.07;;;23.20;50.40;;;;;;5107450;27;20568;-49
2022/06/21 06:55:55;;;;;;;2.00;1.90;;;23.20;50.30;;;;;;5140506;27;20584;-48
2022/06/21 06:58:44;;;;;;;1.40;1.20;;;23.20;50.10;;;;;;5081524;28;20521;-49
2022/06/21 07:01:40;;;;;;;2.80;1.43;;;23.20;50.30;;;;;;5064302;28;20590;-48
2022/06/21 07:04:20;;;;;;;1.30;1.20;;;23.20;50.40;;;;;;5070901;28;20541;-49
2022/06/21 07:07:06;;;;;;;1.30;1.20;;;23.10;50.30;;;;;;5065232;28;20546;-48
2022/06/21 07:09:52;;;;;;;1.90;1.80;;;23.10;50.30;;;;;;5087006;28;21038;-48
2022/06/21 07:12:33;;;;;;;2.03;1.60;;;23.10;50.30;;;;;;5091064;27;20549;-48
2022/06/21 07:15:14;;;;;;;1.80;1.57;;;23.10;50.20;;;;;;5007731;28;20551;-48
2022/06/21 07:17:57;;;;;;;2.70;1.60;;;23.10;50.20;;;;;;5067854;27;20613;-49
2022/06/21 07:20:41;;;;;;;1.60;1.50;;;23.10;50.30;;;;;;5069709;28;20625;-47
2022/06/21 07:23:25;;;;;;;1.93;1.80;;;23.10;50.30;;;;;;5072336;28;20528;-49
2022/06/21 07:26:09;;;;;;;3.00;2.10;;;23.10;50.20;;;;;;5119862;27;20600;-49
2022/06/21 07:28:54;;;;;;;2.87;2.67;;;23.10;50.00;;;;;;5086263;28;20534;-48
2022/06/21 07:31:38;;;;;;;2.17;1.57;;;23.10;50.00;;;;;;5079164;27;20570;-49
2022/06/21 07:34:25;;;;;;;1.70;1.60;;;23.10;50.30;;;;;;5118865;27;21534;-48
2022/06/21 07:37:14;;;;;;;2.33;2.00;;;23.10;50.20;;;;;;5049784;27;20585;-48
2022/06/21 07:40:00;;;;;;;1.90;1.80;;;23.10;50.00;;;;;;5087852;28;20500;-48
2022/06/21 07:42:45;;;;;;;2.10;1.90;;;23.10;50.20;;;;;;5036107;27;20676;-49
2022/06/21 07:45:31;;;;;;;1.90;1.53;;;23.10;50.30;;;;;;5125137;27;20592;-49
2022/06/21 07:48:19;;;;;;;1.50;1.40;;;23.10;50.40;;;;;;5107030;27;20530;-49
2022/06/21 07:51:05;;;;;;;2.17;2.00;;;23.10;50.40;;;;;;5075110;27;20606;-48
2022/06/21 07:53:50;;;;;;;1.60;1.50;;;23.10;50.50;;;;;;5106005;27;20615;-48
2022/06/21 07:56:42;;;;;;;1.53;1.43;;;23.10;50.60;;;;;;5092957;27;21037;-48
2022/06/21 07:59:27;;;;;;;1.40;1.30;;;23.10;50.60;;;;;;5088056;27;20519;-49
2022/06/21 08:08:30;;;;;;;1.40;1.30;;;23.00;50.50;;;;;;5107420;27;21047;-48
2022/06/21 08:11:16;;;;;;;1.50;1.40;;;23.00;50.50;;;;;;5081622;27;20539;-49
2022/06/21 08:13:57;;;;;;;2.73;1.63;;;23.00;50.60;;;;;;5099994;22;20564;-73
2022/06/21 08:16:43;;;;;;;1.50;1.40;;;23.00;50.70;;;;;;5117051;27;22349;-47
2022/06/21 08:19:29;;;;;;;1.90;1.40;;;23.00;50.60;;;;;;5106021;27;20536;-47
2022/06/21 08:22:16;;;;;;;1.47;1.37;;;23.00;50.60;;;;;;5091472;27;20605;-48
2022/06/21 08:24:59;;;;;;;1.57;1.47;;;23.00;50.70;;;;;;5127276;27;20535;-47
2022/06/21 08:27:46;;;;;;;1.40;1.30;;;23.00;50.60;;;;;;5049560;28;20985;-49
2022/06/21 08:30:34;;;;;;;1.60;1.50;;;23.00;50.80;;;;;;5087008;28;20584;-50
2022/06/21 08:33:18;;;;;;;2.10;1.50;;;23.00;50.70;;;;;;5128941;27;20527;-52
2022/06/21 08:36:03;;;;;;;1.70;1.60;;;23.00;50.80;;;;;;5107512;27;21110;-48
2022/06/21 08:38:47;;;;;;;1.50;1.40;;;23.00;50.80;;;;;;5025621;28;20591;-48
2022/06/21 08:42:03;;;;;;;1.50;1.40;;;23.00;50.80;;;;;;5066776;28;20534;-47
2022/06/21 08:48:42;;;;;;;1.97;1.63;;;23.00;51.90;;;;;;5115924;27;20578;-51
2022/06/21 08:51:59;;;;;;;1.80;1.67;;;22.90;50.80;;;;;;5075180;27;20553;-51
2022/06/21 08:54:52;;;;;;;1.60;1.30;;;22.90;50.80;;;;;;5076403;27;20593;-48
2022/06/21 08:57:40;;;;;;;1.70;1.40;;;22.90;50.80;;;;;;5064371;27;20551;-46
2022/06/21 09:00:26;;;;;;;1.20;1.10;;;22.90;50.70;;;;;;5078013;28;20590;-47
2022/06/21 09:03:23;;;;;;;1.57;1.47;;;22.90;50.80;;;;;;5086508;28;20936;-48
2022/06/21 09:06:19;;;;;;;1.40;1.30;;;22.90;50.70;;;;;;5078138;28;20525;-47
2022/06/21 09:09:23;;;;;;;1.47;1.37;;;22.90;50.70;;;;;;5088047;27;20535;-48
2022/06/21 09:12:12;;;;;;;1.57;1.47;;;22.90;50.70;;;;;;5077748;27;20625;-49
2022/06/21 09:15:18;;;;;;;1.63;1.40;;;22.90;50.70;;;;;;5066153;28;20552;-47
2022/06/21 09:18:11;;;;;;;1.53;1.43;;;22.90;50.60;;;;;;5053435;27;21026;-48
2022/06/21 09:21:05;;;;;;;1.47;1.37;;;22.90;50.70;;;;;;5098126;27;20537;-48
2022/06/21 09:23:57;;;;;;;2.00;1.90;;;22.90;50.70;;;;;;5085422;27;20584;-48
2022/06/21 09:26:45;;;;;;;1.53;1.43;;;22.90;50.70;;;;;;5070698;27;21101;-46
2022/06/21 09:29:34;;;;;;;1.63;1.50;;;22.90;50.70;;;;;;5145680;27;20535;-50
2022/06/21 09:32:26;;;;;;;4.13;1.60;;;22.90;50.60;;;;;;5047341;27;20603;-48
2022/06/21 09:35:27;;;;;;;2.03;1.67;;;22.90;50.70;;;;;;5072546;27;20684;-48
2022/06/21 09:38:17;;;;;;;1.77;1.67;;;22.90;50.50;;;;;;5087036;28;20939;-48
2022/06/21 09:41:07;;;;;;;2.83;1.90;;;22.90;50.50;;;;;;5119272;27;1284041;-49
2022/06/21 09:44:13;;;;;;;1.93;1.83;;;22.90;49.90;;;;;;5105615;27;20934;-47
2022/06/21 09:46:59;;;;;;;1.60;1.50;;;22.90;50.00;;;;;;5104207;27;20529;-50
2022/06/21 09:49:50;;;;;;;3.30;1.50;;;22.90;49.70;;;;;;5075284;28;20526;-49
2022/06/21 09:52:43;;;;;;;1.57;1.47;;;22.90;49.90;;;;;;5053363;27;21133;-49
2022/06/21 09:55:32;;;;;;;1.60;1.50;;;22.90;49.90;;;;;;5107233;27;1235766;-48
2022/06/21 09:58:23;;;;;;;2.70;2.20;;;22.90;50.00;;;;;;5085736;27;20530;-48
2022/06/21 10:01:12;;;;;;;1.67;1.50;;;22.90;49.70;;;;;;5117274;27;20539;-48
2022/06/21 10:04:14;;;;;;;1.70;1.60;;;22.90;49.80;;;;;;5120519;27;21110;-50
2022/06/21 10:07:05;;;;;;;1.77;1.67;;;22.90;50.00;;;;;;5054333;28;20596;-48
2022/06/21 10:09:59;;;;;;;2.03;1.73;;;22.90;49.90;;;;;;5086950;28;20520;-49
2022/06/21 10:12:49;;;;;;;1.50;1.40;;;22.90;50.00;;;;;;5076933;27;20575;-47
2022/06/21 10:15:39;;;;;;;1.53;1.43;;;22.90;50.20;;;;;;5088071;27;20600;-50
2022/06/21 10:18:42;;;;;;;2.00;1.83;;;22.90;49.80;;;;;;5086936;28;20941;-48
2022/06/21 10:21:46;;;;;;;1.77;1.53;;;22.90;50.00;;;;;;5055500;27;21023;-49
2022/06/21 10:24:50;;;;;;;1.70;1.53;;;22.90;49.70;;;;;;5085082;27;20606;-47
2022/06/21 10:27:56;;;;;;;2.13;1.83;;;22.90;49.10;;;;;;5065159;28;20548;-49
2022/06/21 10:30:52;;;;;;;1.60;1.40;;;22.90;49.30;;;;;;5121214;27;20584;-50
2022/06/21 10:34:02;;;;;;;2.07;1.97;;;22.90;49.10;;;;;;5086550;28;20599;-47
2022/06/21 10:37:00;;;;;;;1.50;1.40;;;22.90;48.60;;;;;;5082708;27;21056;-51
2022/06/21 10:40:13;;;;;;;3.37;1.30;;;22.90;49.40;;;;;;5127590;27;20643;-46
2022/06/21 10:43:10;;;;;;;2.50;1.73;;;22.90;49.60;;;;;;5075227;27;1294154;-48
2022/06/21 10:45:55;;;;;;;2.80;2.50;;;22.90;49.20;;;;;;5141801;27;20543;-47
2022/06/21 10:49:00;;;;;;;2.70;1.60;;;22.90;49.10;;;;;;5088685;27;20847;-49
2022/06/21 10:51:56;;;;;;;1.70;1.60;;;22.90;49.10;;;;;;5071087;28;20907;-49
2022/06/21 10:54:55;;;;;;;1.87;1.77;;;22.90;49.10;;;;;;5120736;27;20874;-48
2022/06/21 10:57:46;;;;;;;2.03;1.80;;;22.90;49.10;;;;;;5061522;27;20611;-47
2022/06/21 11:04:03;;;;;;;1.93;1.67;;;22.90;49.20;;;;;;5086391;27;20527;-51
2022/06/21 11:06:51;;;;;;;3.40;1.90;;;22.90;48.80;;;;;;5094031;27;20554;-48
2022/06/21 11:09:42;;;;;;;2.70;1.77;;;22.90;49.00;;;;;;5087469;27;20514;-48
2022/06/21 11:15:44;;;;;;;2.07;1.97;;;22.90;49.10;;;;;;5065708;27;20549;-49
2022/06/21 11:18:40;;;;;;;1.60;1.50;;;22.90;48.70;;;;;;5128121;27;20512;-48
2022/06/21 11:21:38;;;;;;;2.03;1.93;;;22.90;49.10;;;;;;5107474;27;20601;-56
2022/06/21 11:24:31;;;;;;;1.73;1.50;;;22.90;49.10;;;;;;5127550;27;20574;-48
2022/06/21 11:27:18;;;;;;;2.23;2.03;;;22.90;49.30;;;;;;5074054;27;20619;-49
2022/06/21 11:30:04;;;;;;;3.00;1.30;;;22.90;49.30;;;;;;5078634;28;20871;-48
2022/06/21 11:32:54;;;;;;;2.77;1.67;;;22.90;49.60;;;;;;5057343;27;20574;-51
2022/06/21 11:35:42;;;;;;;1.40;1.30;;;22.90;49.40;;;;;;5065405;27;20549;-47
2022/06/21 11:38:41;;;;;;;1.60;1.50;;;22.90;49.40;;;;;;5095516;27;20653;-49
2022/06/21 11:44:44;;;;;;;1.90;1.70;;;23.00;48.90;;;;;;5109205;27;21133;-49
2022/06/21 11:47:45;;;;;;;1.70;1.40;;;23.00;49.90;;;;;;5062917;28;20595;-48
2022/06/21 11:50:32;;;;;;;1.67;1.43;;;23.00;49.70;;;;;;5069039;27;20527;-48
2022/06/21 11:53:39;;;;;;;2.37;1.30;;;23.00;49.20;;;;;;5090294;27;20545;-47
2022/06/21 11:56:27;;;;;;;1.80;1.70;;;23.00;49.10;;;;;;5071654;27;20535;-50
2022/06/21 11:59:15;;;;;;;3.00;1.10;;;23.00;49.30;;;;;;5125460;27;20862;-48
2022/06/21 12:02:05;;;;;;;2.00;1.60;;;23.00;49.30;;;;;;5055746;28;20612;-49
2022/06/21 12:04:55;;;;;;;1.63;1.53;;;23.00;49.30;;;;;;5072964;28;21025;-47
2022/06/21 12:07:44;;;;;;;1.67;1.57;;;23.00;49.40;;;;;;5135583;27;21089;-49
2022/06/21 12:10:37;;;;;;;2.77;2.37;;;23.00;49.90;;;;;;5086639;28;20526;-49
2022/06/21 12:13:33;;;;;;;2.70;1.30;;;23.00;49.70;;;;;;5128187;27;20921;-48
2022/06/21 12:16:35;;;;;;;1.33;1.23;;;23.00;49.20;;;;;;5094123;27;20532;-47
2022/06/21 12:19:20;;;;;;;1.33;1.23;;;23.00;49.70;;;;;;5117582;27;20598;-46
2022/06/21 12:22:24;;;;;;;1.50;1.40;;;23.10;50.00;;;;;;5051048;28;21274;-48
2022/06/21 12:25:11;;;;;;;1.83;1.37;;;23.10;49.80;;;;;;5075216;28;20528;-47
2022/06/21 12:27:58;;;;;;;1.60;1.30;;;23.10;49.50;;;;;;5070509;27;20549;-51
2022/06/21 12:31:01;;;;;;;1.60;1.40;;;23.10;49.70;;;;;;5067025;28;21037;-71
2022/06/21 12:33:45;;;;;;;1.60;1.50;;;23.10;49.80;;;;;;5084924;27;20535;-48
2022/06/21 12:36:37;;;;;;;1.60;1.50;;;23.10;49.50;;;;;;5047995;28;20959;-48
2022/06/21 12:39:25;;;;;;;1.80;1.67;;;23.10;49.10;;;;;;5078026;27;20591;-47
2022/06/21 12:42:42;;;;;;;1.50;1.40;;;23.10;49.00;;;;;;5092813;27;20966;-51
2022/06/21 12:45:50;;;;;;;1.27;1.20;;;23.10;49.40;;;;;;5065066;27;20603;-47
2022/06/21 12:49:06;;;;;;;1.30;1.20;;;23.10;49.30;;;;;;5127138;27;20569;-50
2022/06/21 12:51:56;;;;;;;1.20;1.10;;;23.10;49.60;;;;;;5072619;28;21118;-48
2022/06/21 12:54:58;;;;;;;1.73;1.63;;;23.10;49.60;;;;;;5124476;27;20539;-52
2022/06/21 12:57:59;;;;;;;1.37;1.23;;;23.10;49.60;;;;;;5067345;27;20607;-50
2022/06/21 13:00:47;;;;;;;1.67;1.57;;;23.20;49.70;;;;;;5125777;27;20579;-48
2022/06/21 13:03:49;;;;;;;2.10;1.47;;;23.20;49.60;;;;;;5134355;27;20864;-48
2022/06/21 13:07:03;;;;;;;2.07;1.60;;;23.20;50.00;;;;;;5076449;27;20583;-49
2022/06/21 13:10:17;;;;;;;1.47;1.37;;;23.10;49.20;;;;;;5089770;27;20966;-51
2022/06/21 13:13:30;;;;;;;1.50;1.40;;;23.10;49.50;;;;;;5067688;27;20549;-48
2022/06/21 13:16:25;;;;;;;3.00;1.50;;;23.20;49.30;;;;;;5074267;28;20613;-48
2022/06/21 13:19:33;;;;;;;1.47;1.30;;;23.20;49.20;;;;;;5127061;27;20583;-49
2022/06/21 13:22:41;;;;;;;2.00;1.90;;;23.20;49.10;;;;;;5084835;27;20545;-48
2022/06/21 13:25:41;;;;;;;2.97;1.33;;;23.20;49.00;;;;;;5079123;27;21195;-48
2022/06/21 13:28:53;;;;;;;2.13;1.20;;;23.20;49.00;;;;;;5085919;27;20589;-48
2022/06/21 13:31:41;;;;;;;3.00;1.30;;;23.20;48.60;;;;;;5099197;27;20548;-49
2022/06/21 13:34:30;;;;;;;1.60;1.23;;;23.20;48.90;;;;;;5126591;27;20586;-49
2022/06/21 13:37:16;;;;;;;1.67;1.20;;;23.20;48.90;;;;;;5088761;27;21180;-48
2022/06/21 13:40:03;;;;;;;2.13;1.93;;;23.30;49.20;;;;;;5087573;27;20582;-46
2022/06/21 13:42:49;;;;;;;1.60;1.50;;;23.30;50.50;;;;;;5104879;27;20647;-50
2022/06/21 13:45:41;;;;;;;2.10;1.30;;;23.30;49.40;;;;;;5064391;28;20550;-46
2022/06/21 13:48:31;;;;;;;2.40;1.40;;;23.30;49.50;;;;;;5085915;28;20531;-49
2022/06/21 13:51:26;;;;;;;1.63;1.53;;;23.30;48.50;;;;;;5093239;27;20592;-47
2022/06/21 13:54:15;;;;;;;1.67;1.57;;;23.30;48.90;;;;;;5082396;27;20650;-48
2022/06/21 13:57:00;;;;;;;1.90;1.80;;;23.30;49.10;;;;;;5057574;28;21065;-48
2022/06/21 13:59:47;;;;;;;1.77;1.67;;;23.30;49.10;;;;;;5085708;28;20936;-48
2022/06/21 14:02:31;;;;;;;1.67;1.57;;;23.30;48.70;;;;;;5119035;27;20959;-47
2022/06/21 14:05:17;;;;;;;2.00;1.80;;;23.30;48.50;;;;;;5116939;27;20535;-49
2022/06/21 14:08:04;;;;;;;1.77;1.20;;;23.30;47.80;;;;;;5064347;27;20599;-67
2022/06/21 14:10:49;;;;;;;1.73;1.37;;;23.40;48.60;;;;;;5128938;27;20598;-48
2022/06/21 14:13:37;;;;;;;1.40;1.30;;;23.40;48.90;;;;;;5068188;28;20956;-47
2022/06/21 14:16:23;;;;;;;2.97;1.40;;;23.40;49.10;;;;;;5068227;28;20582;-52
2022/06/21 14:19:12;;;;;;;1.63;1.30;;;23.40;48.80;;;;;;5127787;27;21042;-49
2022/06/21 14:22:00;;;;;;;1.50;1.27;;;23.40;49.50;;;;;;5065015;28;20538;-49
2022/06/21 14:24:48;;;;;;;1.63;1.30;;;23.40;49.30;;;;;;5116192;27;20588;-50
2022/06/21 14:27:37;;;;;;;1.43;1.33;;;23.40;49.80;;;;;;5028329;28;20603;-67
2022/06/21 14:30:23;;;;;;;1.83;1.30;;;23.40;48.90;;;;;;5080209;27;21125;-48
2022/06/21 14:33:31;;;;;;;1.60;1.50;;;23.40;49.40;;;;;;5068326;28;20533;-47
2022/06/21 14:36:25;;;;;;;2.77;1.63;;;23.40;48.90;;;;;;5075685;27;20667;-49
2022/06/21 14:39:13;;;;;;;1.60;1.50;;;23.40;49.30;;;;;;5087660;27;20590;-48
2022/06/21 14:41:58;;;;;;;2.20;1.33;;;23.40;49.40;;;;;;5094369;27;20974;-50
2022/06/21 14:44:46;;;;;;;1.93;1.10;;;23.40;49.30;;;;;;5077011;27;20653;-49
2022/06/21 14:47:34;;;;;;;1.40;1.30;;;23.50;49.40;;;;;;5063878;27;20552;-49
2022/06/21 14:50:22;;;;;;;1.43;1.30;;;23.50;49.50;;;;;;5042268;28;20523;-48
2022/06/21 14:53:47;;;;;;;1.43;1.33;;;23.50;49.20;;;;;;5026025;28;20604;-49
2022/06/21 14:56:43;;;;;;;1.37;1.27;;;23.50;49.30;;;;;;5092398;27;20612;-51
2022/06/21 14:59:54;;;;;;;1.50;1.20;;;23.50;49.50;;;;;;5117343;27;21077;-47
2022/06/21 15:03:06;;;;;;;1.93;1.70;;;23.50;49.90;;;;;;5059269;27;20542;-51
2022/06/21 15:05:54;;;;;;;1.70;1.60;;;23.50;49.40;;;;;;5124411;27;20544;-47